createdAt,value
2018-12-23T00:01:45.956Z,9.47
2018-12-23T00:06:40.449Z,9.60
2018-12-23T00:11:35.183Z,9.50
2018-12-23T00:16:29.685Z,8.00
2018-12-23T00:21:24.335Z,8.73
2018-12-23T00:26:18.877Z,7.10
2018-12-23T00:31:13.409Z,6.20
2018-12-23T00:36:07.924Z,6.57
2018-12-23T00:41:02.433Z,5.57
2018-12-23T00:45:56.946Z,5.87
2018-12-23T00:50:51.461Z,5.97
2018-12-23T00:55:46.012Z,6.87
2018-12-23T01:00:40.528Z,6.70
2018-12-23T01:05:35.117Z,6.23
2018-12-23T01:10:29.597Z,7.00
2018-12-23T01:15:24.108Z,6.33
2018-12-23T01:20:18.607Z,6.30
2018-12-23T01:25:14.760Z,5.70
2018-12-23T01:30:09.431Z,4.80
2018-12-23T01:35:04.116Z,4.83
2018-12-23T01:39:58.620Z,5.00
2018-12-23T01:44:53.328Z,3.63
2018-12-23T01:49:47.820Z,3.60
2018-12-23T01:54:42.284Z,3.87
2018-12-23T01:59:36.762Z,3.80
2018-12-23T02:04:31.288Z,4.43
2018-12-23T02:09:25.780Z,4.00
2018-12-23T02:14:20.297Z,4.30
2018-12-23T02:19:14.777Z,4.10
2018-12-23T02:24:09.285Z,3.87
2018-12-23T02:29:04.041Z,4.00
2018-12-23T02:33:58.525Z,3.40
2018-12-23T02:38:53.018Z,3.47
2018-12-23T02:43:47.511Z,3.23
2018-12-23T02:48:42.029Z,3.03
2018-12-23T02:53:36.512Z,2.87
2018-12-23T02:58:31.023Z,2.97
2018-12-23T03:03:25.507Z,2.93
2018-12-23T03:08:20.048Z,2.90
2018-12-23T03:13:14.564Z,3.20
2018-12-23T03:18:09.088Z,2.93
2018-12-23T03:23:03.621Z,3.13
2018-12-23T03:27:58.200Z,2.70
2018-12-23T03:32:52.685Z,3.00
2018-12-23T03:37:47.660Z,2.80
2018-12-23T03:42:42.157Z,3.13
2018-12-23T03:47:36.636Z,3.03
2018-12-23T03:52:31.138Z,3.57
2018-12-23T03:57:25.876Z,3.60
2018-12-23T04:02:20.356Z,3.40
2018-12-23T04:07:14.821Z,3.43
2018-12-23T04:12:09.320Z,3.20
2018-12-23T04:17:03.914Z,3.53
2018-12-23T04:21:58.400Z,3.53
2018-12-23T04:26:52.873Z,3.33
2018-12-23T04:31:47.347Z,2.93
2018-12-23T04:36:41.840Z,3.07
2018-12-23T04:41:36.328Z,3.23
2018-12-23T04:46:30.821Z,3.47
2018-12-23T04:51:25.397Z,3.50
2018-12-23T04:56:19.933Z,3.30
2018-12-23T05:01:14.465Z,3.37
2018-12-23T05:06:08.975Z,3.77
2018-12-23T05:11:03.461Z,3.30
2018-12-23T05:15:57.934Z,3.10
2018-12-23T05:20:52.540Z,2.90
2018-12-23T05:25:47.453Z,3.00
2018-12-23T05:30:41.953Z,3.17
2018-12-23T05:35:36.449Z,3.40
2018-12-23T05:40:30.960Z,3.37
2018-12-23T05:45:25.874Z,3.50
2018-12-23T05:50:21.451Z,3.13
2018-12-23T05:55:25.720Z,3.43
2018-12-23T06:00:20.259Z,3.10
2018-12-23T06:05:14.818Z,3.53
2018-12-23T06:10:09.369Z,3.33
2018-12-23T06:15:04.448Z,3.87
2018-12-23T06:19:58.920Z,3.83
2018-12-23T06:24:53.496Z,5.20
2018-12-23T06:29:47.989Z,4.87
2018-12-23T06:34:42.468Z,4.30
2018-12-23T06:39:36.964Z,9.13
2018-12-23T06:44:31.477Z,9.47
2018-12-23T06:49:25.953Z,6.17
2018-12-23T06:54:20.488Z,6.03
2018-12-23T06:59:15.001Z,6.00
2018-12-23T07:04:09.626Z,5.93
2018-12-23T07:09:05.332Z,9.30
2018-12-23T07:13:59.797Z,12.10
2018-12-23T07:18:54.405Z,7.70
2018-12-23T07:23:48.944Z,11.57
2018-12-23T07:28:43.517Z,9.73
2018-12-23T07:33:38.060Z,9.47
2018-12-23T07:38:32.585Z,8.20
2018-12-23T07:43:28.495Z,10.53
2018-12-23T07:48:23.025Z,22.87
2018-12-23T07:53:17.961Z,28.17
2018-12-23T07:58:12.525Z,21.77
2018-12-23T08:03:07.058Z,26.67
2018-12-23T08:08:33.813Z,19.50
2018-12-23T08:13:30.054Z,16.90
2018-12-23T08:18:26.262Z,19.37
2018-12-23T08:23:22.458Z,20.63
2018-12-23T08:28:18.652Z,101.57
2018-12-23T08:33:14.835Z,40.60
2018-12-23T08:38:11.019Z,21.87
2018-12-23T08:43:07.206Z,43.60
2018-12-23T08:48:03.503Z,18.33
2018-12-23T08:52:59.678Z,14.23
2018-12-23T08:57:55.851Z,16.37
2018-12-23T09:02:52.034Z,20.63
2018-12-23T09:07:52.942Z,15.87
2018-12-23T09:12:46.171Z,17.07
2018-12-23T09:17:43.903Z,14.43
2018-12-23T09:22:40.082Z,19.30
2018-12-23T09:27:36.266Z,40.20
2018-12-23T09:32:32.462Z,19.07
2018-12-23T09:37:28.646Z,12.73
2018-12-23T09:42:24.797Z,13.70
2018-12-23T09:47:22.537Z,14.77
2018-12-23T09:52:18.696Z,18.23
2018-12-23T09:57:14.854Z,14.43
2018-12-23T10:02:11.010Z,15.70
2018-12-23T10:07:07.558Z,14.93
2018-12-23T10:12:03.731Z,15.23
2018-12-23T10:16:59.902Z,14.17
2018-12-23T10:21:56.090Z,13.40
2018-12-23T10:26:52.262Z,15.40
2018-12-23T10:31:48.510Z,15.63
2018-12-23T10:36:44.714Z,20.20
2018-12-23T10:41:40.862Z,16.20
2018-12-23T10:46:37.040Z,14.90
2018-12-23T10:52:11.841Z,15.17
2018-12-23T10:57:15.214Z,15.90
2018-12-23T11:02:13.730Z,16.07
2018-12-23T11:07:10.174Z,15.13
2018-12-23T11:12:06.418Z,18.50
2018-12-23T11:17:02.566Z,17.43
2018-12-23T11:21:58.758Z,14.83
2018-12-23T11:26:54.930Z,14.47
2018-12-23T11:31:51.121Z,19.40
2018-12-23T11:36:47.289Z,21.33
2018-12-23T11:41:43.426Z,20.37
2018-12-23T11:46:39.577Z,18.20
2018-12-23T11:51:35.838Z,17.67
2018-12-23T11:56:32.030Z,18.03
2018-12-23T12:01:28.215Z,17.53
2018-12-23T12:06:24.377Z,19.83
2018-12-23T12:11:20.738Z,20.73
2018-12-23T12:16:16.882Z,20.37
2018-12-23T12:21:13.219Z,19.97
2018-12-23T12:26:09.349Z,51.67
2018-12-23T12:31:08.944Z,19.93
2018-12-23T12:36:05.051Z,22.20
2018-12-23T12:41:01.193Z,38.67
2018-12-23T12:46:00.610Z,35.33
2018-12-23T12:50:55.137Z,39.23
2018-12-23T12:55:51.274Z,30.53
2018-12-23T13:00:47.411Z,17.93
2018-12-23T13:05:43.570Z,16.63
2018-12-23T13:10:39.722Z,18.40
2018-12-23T13:15:35.886Z,18.63
2018-12-23T13:20:32.041Z,21.37
2018-12-23T13:25:28.213Z,23.53
2018-12-23T13:30:24.671Z,26.43
2018-12-23T13:35:20.878Z,23.33
2018-12-23T13:40:45.653Z,21.23
2018-12-23T13:46:37.557Z,21.87
2018-12-23T13:52:08.028Z,22.17
2018-12-23T13:57:58.166Z,20.17
2018-12-23T14:03:15.651Z,18.53
2018-12-23T14:08:36.242Z,15.67
2018-12-23T14:13:33.615Z,16.27
2018-12-23T14:18:29.797Z,14.90
2018-12-23T14:23:25.997Z,16.80
2018-12-23T14:28:22.154Z,15.80
2018-12-23T14:33:18.322Z,15.00
2018-12-23T14:38:14.449Z,15.40
2018-12-23T14:43:10.630Z,13.97
2018-12-23T14:48:06.771Z,13.47
2018-12-23T14:53:02.910Z,20.47
2018-12-23T14:57:59.126Z,73.77
2018-12-23T15:02:55.284Z,57.10
2018-12-23T15:07:51.531Z,20.30
2018-12-23T15:12:47.858Z,14.77
2018-12-23T15:17:44.069Z,13.53
2018-12-23T15:22:40.273Z,15.00
2018-12-23T15:27:39.798Z,15.83
2018-12-23T15:32:36.072Z,16.90
2018-12-23T15:37:32.862Z,33.47
2018-12-23T15:42:29.026Z,15.47
2018-12-23T15:47:25.265Z,21.80
2018-12-23T15:52:21.885Z,23.03
2018-12-23T15:57:18.074Z,21.23
2018-12-23T16:02:16.663Z,16.27
2018-12-23T16:07:12.886Z,17.40
2018-12-23T16:12:10.549Z,19.33
2018-12-23T16:17:06.722Z,18.63
2018-12-23T16:22:03.181Z,15.47
2018-12-23T16:26:59.358Z,15.13
2018-12-23T16:31:55.624Z,14.73
2018-12-23T16:36:52.123Z,14.87
2018-12-23T16:41:48.416Z,17.03
2018-12-23T16:46:44.576Z,20.13
2018-12-23T16:51:40.734Z,23.60
2018-12-23T16:56:37.934Z,22.83
2018-12-23T17:01:34.256Z,22.10
2018-12-23T17:06:30.414Z,17.73
2018-12-23T17:11:26.564Z,30.33
2018-12-23T17:16:22.714Z,31.13
2018-12-23T17:21:18.874Z,30.70
2018-12-23T17:26:15.036Z,28.47
2018-12-23T17:31:11.226Z,30.90
2018-12-23T17:36:07.382Z,24.70
2018-12-23T17:41:03.641Z,28.57
2018-12-23T17:45:59.819Z,29.23
2018-12-23T17:50:55.985Z,28.03
2018-12-23T17:55:52.531Z,32.03
2018-12-23T18:00:48.702Z,27.83
2018-12-23T18:05:45.401Z,27.07
2018-12-23T18:10:42.437Z,27.00
2018-12-23T18:15:38.713Z,29.33
2018-12-23T18:20:34.926Z,28.73
2018-12-23T18:25:32.761Z,29.10
2018-12-23T18:30:30.019Z,45.73
2018-12-23T18:35:26.233Z,32.10
2018-12-23T18:40:22.485Z,31.30
2018-12-23T18:45:18.742Z,47.67
2018-12-23T18:50:14.974Z,39.47
2018-12-23T18:55:11.141Z,32.50
2018-12-23T19:00:08.362Z,35.70
2018-12-23T19:05:04.611Z,35.10
2018-12-23T19:10:42.055Z,37.37
2018-12-23T19:16:14.091Z,32.23
2018-12-23T19:21:50.026Z,34.90
2018-12-23T19:27:45.078Z,33.93
2018-12-23T19:33:19.885Z,32.63
2018-12-23T19:38:41.225Z,32.40
2018-12-23T19:43:59.239Z,33.90
2018-12-23T19:49:27.782Z,38.17
2018-12-23T19:55:06.443Z,57.43
2018-12-23T20:00:24.459Z,44.97
2018-12-23T20:05:51.871Z,49.17
2018-12-23T20:11:28.448Z,49.77
2018-12-23T20:17:05.921Z,44.10
2018-12-23T20:22:58.135Z,41.67
2018-12-23T20:28:34.725Z,43.87
2018-12-23T20:33:52.557Z,37.53
2018-12-23T20:39:19.223Z,34.10
2018-12-23T20:45:05.327Z,35.17
2018-12-23T20:50:14.982Z,45.23
2018-12-23T20:56:00.381Z,47.53
2018-12-23T21:01:45.497Z,47.03
2018-12-23T21:07:20.677Z,34.00
2018-12-23T21:13:01.255Z,33.00
2018-12-23T21:18:34.262Z,35.77
2018-12-23T21:24:16.303Z,45.47
2018-12-23T21:29:47.625Z,41.83
2018-12-23T21:35:33.761Z,43.47
2018-12-23T21:41:08.771Z,41.07
2018-12-23T21:46:41.996Z,42.37
2018-12-23T21:52:05.433Z,40.60
2018-12-23T21:58:12.665Z,41.47
2018-12-23T22:03:53.549Z,39.10
2018-12-23T22:09:24.451Z,40.60
2018-12-23T22:14:20.622Z,43.70
2018-12-23T22:19:23.141Z,40.23
2018-12-23T22:24:19.350Z,41.07
2018-12-23T22:29:15.494Z,38.40
2018-12-23T22:34:11.641Z,45.13
2018-12-23T22:39:08.845Z,51.30
2018-12-23T22:44:05.054Z,43.33
2018-12-23T22:49:01.207Z,48.53
2018-12-23T22:53:57.362Z,49.17
2018-12-23T22:58:53.546Z,46.27
2018-12-23T23:03:49.687Z,56.63
2018-12-23T23:08:46.259Z,48.00
2018-12-23T23:13:42.453Z,42.60
2018-12-23T23:18:38.629Z,41.30
2018-12-23T23:23:34.789Z,41.33
2018-12-23T23:28:30.970Z,41.97
2018-12-23T23:33:27.122Z,41.30
2018-12-23T23:38:23.282Z,41.97
2018-12-23T23:43:20.772Z,40.60
2018-12-23T23:48:17.089Z,38.13
2018-12-23T23:53:13.591Z,35.77
2018-12-23T23:58:09.764Z,36.67
